createdAt,value
2022-11-29T00:00:59.938Z,0.30
2022-11-29T00:03:27.665Z,0.30
2022-11-29T00:05:55.448Z,0.40
2022-11-29T00:08:23.693Z,0.30
2022-11-29T00:10:51.450Z,0.30
2022-11-29T00:13:18.969Z,0.30
2022-11-29T00:15:47.756Z,0.30
2022-11-29T00:18:15.235Z,0.30
2022-11-29T00:20:42.713Z,0.30
2022-11-29T00:23:10.263Z,0.30
2022-11-29T00:25:38.864Z,0.40
2022-11-29T00:28:06.304Z,0.32
2022-11-29T00:30:34.302Z,0.30
2022-11-29T00:33:03.696Z,0.40
2022-11-29T00:35:31.161Z,0.32
2022-11-29T00:37:58.930Z,0.32
2022-11-29T00:40:26.430Z,0.30
2022-11-29T00:42:53.857Z,0.30
2022-11-29T00:45:21.312Z,0.30
2022-11-29T00:47:48.825Z,0.30
2022-11-29T00:50:17.650Z,0.30
2022-11-29T00:52:45.125Z,0.30
2022-11-29T00:55:12.561Z,0.30
2022-11-29T00:57:40.025Z,0.40
2022-11-29T01:00:08.170Z,0.40
2022-11-29T01:02:35.722Z,0.32
2022-11-29T01:05:03.257Z,0.40
2022-11-29T01:07:32.130Z,0.30
2022-11-29T01:09:59.630Z,0.30
2022-11-29T01:12:27.138Z,0.30
2022-11-29T01:14:54.663Z,0.30
2022-11-29T01:17:22.155Z,0.40
2022-11-29T01:19:51.146Z,0.30
2022-11-29T01:22:18.764Z,0.40
2022-11-29T01:24:47.739Z,0.30
2022-11-29T01:27:15.630Z,0.35
2022-11-29T01:29:43.067Z,0.30
2022-11-29T01:32:13.613Z,0.30
2022-11-29T01:34:41.471Z,0.30
2022-11-29T01:37:09.119Z,0.30
2022-11-29T01:39:36.602Z,0.30
2022-11-29T01:42:05.607Z,0.40
2022-11-29T01:44:51.728Z,0.35
2022-11-29T01:47:19.608Z,0.30
2022-11-29T01:49:48.904Z,0.30
2022-11-29T01:52:17.837Z,0.30
2022-11-29T01:54:47.955Z,0.30
2022-11-29T01:57:17.285Z,0.30
2022-11-29T01:59:47.448Z,0.30
2022-11-29T02:02:16.498Z,0.30
2022-11-29T02:04:46.539Z,0.30
2022-11-29T02:07:14.510Z,0.30
2022-11-29T02:09:42.050Z,0.40
2022-11-29T02:12:15.489Z,0.30
2022-11-29T02:14:54.651Z,0.30
2022-11-29T02:17:24.570Z,0.30
2022-11-29T02:20:06.622Z,0.30
2022-11-29T02:22:35.846Z,0.35
2022-11-29T02:25:17.768Z,0.30
2022-11-29T02:27:56.927Z,0.30
2022-11-29T02:30:30.546Z,0.30
2022-11-29T02:33:05.806Z,0.38
2022-11-29T02:35:48.210Z,0.40
2022-11-29T02:38:22.717Z,0.30
2022-11-29T02:41:04.800Z,0.40
2022-11-29T02:43:46.744Z,0.30
2022-11-29T02:46:21.230Z,0.30
2022-11-29T02:48:56.639Z,0.30
2022-11-29T02:51:26.898Z,0.40
2022-11-29T02:53:58.022Z,0.40
2022-11-29T02:56:28.319Z,0.30
2022-11-29T02:59:00.729Z,0.40
2022-11-29T03:01:31.936Z,0.30
2022-11-29T03:04:05.491Z,0.30
2022-11-29T03:06:37.818Z,0.38
2022-11-29T03:09:08.898Z,0.30
2022-11-29T03:11:40.428Z,0.30
2022-11-29T03:14:15.156Z,0.40
2022-11-29T03:16:46.104Z,0.40
2022-11-29T03:19:25.022Z,0.35
2022-11-29T03:21:55.087Z,0.40
2022-11-29T03:24:26.488Z,0.40
2022-11-29T03:26:56.899Z,0.40
2022-11-29T03:29:26.928Z,0.40
2022-11-29T03:31:59.361Z,0.35
2022-11-29T03:34:31.596Z,0.40
2022-11-29T03:37:01.568Z,0.30
2022-11-29T03:39:31.404Z,0.30
2022-11-29T03:42:00.944Z,0.30
2022-11-29T03:44:32.172Z,0.30
2022-11-29T03:47:03.373Z,0.43
2022-11-29T03:49:34.138Z,0.30
2022-11-29T03:52:03.609Z,0.32
2022-11-29T03:54:35.904Z,0.47
2022-11-29T03:57:03.641Z,0.43
2022-11-29T03:59:40.129Z,0.30
2022-11-29T04:02:21.088Z,0.32
2022-11-29T04:04:59.080Z,0.40
2022-11-29T04:07:44.554Z,0.50
2022-11-29T04:10:17.927Z,0.40
2022-11-29T04:12:58.345Z,0.30
2022-11-29T04:15:46.714Z,0.40
2022-11-29T04:18:32.121Z,0.32
2022-11-29T04:21:14.454Z,0.50
2022-11-29T04:24:08.222Z,0.45
2022-11-29T04:26:53.399Z,0.40
2022-11-29T04:29:30.532Z,0.40
2022-11-29T04:32:08.698Z,0.40
2022-11-29T04:34:44.258Z,0.40
2022-11-29T04:37:16.618Z,0.30
2022-11-29T04:39:51.617Z,0.40
2022-11-29T04:42:37.833Z,0.40
2022-11-29T04:45:15.491Z,0.40
2022-11-29T04:47:52.856Z,0.30
2022-11-29T04:50:24.639Z,0.30
2022-11-29T04:53:12.921Z,0.45
2022-11-29T04:55:45.587Z,0.30
2022-11-29T04:58:17.412Z,0.32
2022-11-29T05:00:50.805Z,0.30
2022-11-29T05:03:22.886Z,0.50
2022-11-29T05:05:53.621Z,0.30
2022-11-29T05:08:27.120Z,0.40
2022-11-29T05:11:00.679Z,0.40
2022-11-29T05:13:29.949Z,0.40
2022-11-29T05:16:15.236Z,0.40
2022-11-29T05:19:03.892Z,0.32
2022-11-29T05:21:36.937Z,0.30
2022-11-29T05:24:11.433Z,0.43
2022-11-29T05:26:44.781Z,0.40
2022-11-29T05:29:13.646Z,0.45
2022-11-29T05:31:51.628Z,0.40
2022-11-29T05:34:33.270Z,0.50
2022-11-29T05:37:06.381Z,0.40
2022-11-29T05:39:37.916Z,0.40
2022-11-29T05:42:13.567Z,0.30
2022-11-29T05:44:44.136Z,0.40
2022-11-29T05:47:16.226Z,0.30
2022-11-29T05:49:48.467Z,0.40
2022-11-29T05:52:24.448Z,0.40
2022-11-29T05:54:59.960Z,0.35
2022-11-29T05:57:32.418Z,0.40
2022-11-29T06:00:00.622Z,0.40
2022-11-29T06:02:55.329Z,0.40
2022-11-29T06:05:26.899Z,0.40
2022-11-29T06:07:56.975Z,0.40
2022-11-29T06:10:26.432Z,0.32
2022-11-29T06:13:02.692Z,0.30
2022-11-29T06:15:41.128Z,0.50
2022-11-29T06:18:19.200Z,0.30
2022-11-29T06:20:57.080Z,0.30
2022-11-29T06:23:42.366Z,0.40
2022-11-29T06:26:24.043Z,0.30
2022-11-29T06:28:57.876Z,0.32
2022-11-29T06:31:27.964Z,0.40
2022-11-29T06:33:59.450Z,0.30
2022-11-29T06:36:29.794Z,0.30
2022-11-29T06:38:57.434Z,0.40
2022-11-29T06:41:25.517Z,0.30
2022-11-29T06:43:53.257Z,0.30
2022-11-29T06:46:27.859Z,0.30
2022-11-29T06:49:02.323Z,0.40
2022-11-29T06:51:32.482Z,0.38
2022-11-29T06:54:05.438Z,0.30
2022-11-29T06:56:38.210Z,0.40
2022-11-29T06:59:09.658Z,0.40
2022-11-29T07:01:41.276Z,0.40
2022-11-29T07:04:17.682Z,0.30
2022-11-29T07:06:45.719Z,0.43
2022-11-29T07:09:14.818Z,0.30
2022-11-29T07:11:42.876Z,0.30
2022-11-29T07:14:10.810Z,0.30
2022-11-29T07:16:42.968Z,0.30
2022-11-29T07:19:13.514Z,0.38
2022-11-29T07:21:47.054Z,0.30
2022-11-29T07:24:22.099Z,0.30
2022-11-29T07:26:58.052Z,0.30
2022-11-29T07:29:32.529Z,0.35
2022-11-29T07:32:08.153Z,0.38
2022-11-29T07:34:40.785Z,0.30
2022-11-29T07:37:16.681Z,0.40
2022-11-29T07:39:50.165Z,0.40
2022-11-29T07:42:20.772Z,0.40
2022-11-29T07:44:52.669Z,0.40
2022-11-29T07:47:21.508Z,0.30
2022-11-29T07:49:48.939Z,0.43
2022-11-29T07:52:17.327Z,0.40
2022-11-29T07:54:45.022Z,0.40
2022-11-29T07:57:12.701Z,0.30
2022-11-29T07:59:40.208Z,0.40
2022-11-29T08:02:11.629Z,0.30
2022-11-29T08:04:44.077Z,0.30
2022-11-29T08:07:12.274Z,0.32
2022-11-29T08:09:39.766Z,0.30
2022-11-29T08:12:07.342Z,0.30
2022-11-29T08:14:34.913Z,0.30
2022-11-29T08:17:02.442Z,0.30
2022-11-29T08:19:29.964Z,0.30
2022-11-29T08:21:58.756Z,0.30
2022-11-29T08:24:26.798Z,0.30
2022-11-29T08:26:54.256Z,0.38
2022-11-29T08:29:21.711Z,0.40
2022-11-29T08:31:53.106Z,0.40
2022-11-29T08:34:20.623Z,0.40
2022-11-29T08:36:48.296Z,0.38
2022-11-29T08:39:17.079Z,0.30
2022-11-29T08:41:44.654Z,0.30
2022-11-29T08:44:12.066Z,0.40
2022-11-29T08:46:57.154Z,0.30
2022-11-29T08:49:24.647Z,0.32
2022-11-29T08:51:52.202Z,0.30
2022-11-29T08:54:20.075Z,0.30
2022-11-29T08:57:31.058Z,0.30
2022-11-29T08:59:35.057Z,0.32
2022-11-29T09:02:02.578Z,0.40
2022-11-29T09:04:30.071Z,0.40
2022-11-29T09:06:57.608Z,0.30
2022-11-29T09:09:26.493Z,0.30
2022-11-29T09:11:53.952Z,0.30
2022-11-29T09:14:22.771Z,0.30
2022-11-29T09:16:50.421Z,0.30
2022-11-29T09:19:18.018Z,0.30
2022-11-29T09:21:45.584Z,0.30
2022-11-29T09:24:13.112Z,0.30
2022-11-29T09:26:42.340Z,0.40
2022-11-29T09:29:09.808Z,0.35
2022-11-29T09:31:37.347Z,0.40
2022-11-29T09:34:04.843Z,0.40
2022-11-29T09:36:32.305Z,0.40
2022-11-29T09:39:00.173Z,0.38
2022-11-29T09:41:41.967Z,0.30
2022-11-29T09:44:17.023Z,0.30
2022-11-29T09:46:48.309Z,0.30
2022-11-29T09:49:24.389Z,0.30
2022-11-29T09:51:56.477Z,0.40
2022-11-29T09:54:27.862Z,0.30
2022-11-29T09:56:56.579Z,0.30
2022-11-29T09:59:28.919Z,0.30
2022-11-29T10:01:59.315Z,0.30
2022-11-29T10:04:28.348Z,0.30
2022-11-29T10:06:58.740Z,0.30
2022-11-29T10:09:33.331Z,0.30
2022-11-29T10:12:04.155Z,0.30
2022-11-29T10:14:35.623Z,0.30
2022-11-29T10:17:06.565Z,0.40
2022-11-29T10:19:37.384Z,0.30
2022-11-29T10:22:06.189Z,0.30
2022-11-29T10:24:34.508Z,0.40
2022-11-29T10:27:02.066Z,0.43
2022-11-29T10:29:29.581Z,0.30
2022-11-29T10:31:59.374Z,0.40
2022-11-29T10:34:27.485Z,0.30
2022-11-29T10:36:58.576Z,0.30
2022-11-29T10:39:30.153Z,0.30
2022-11-29T10:42:00.369Z,0.30
2022-11-29T10:44:28.180Z,0.43
2022-11-29T10:46:56.925Z,0.30
2022-11-29T10:49:27.011Z,0.30
2022-11-29T10:51:54.538Z,0.40
2022-11-29T10:54:32.467Z,0.40
2022-11-29T10:57:00.766Z,0.40
2022-11-29T10:59:29.046Z,0.30
2022-11-29T11:01:56.927Z,0.30
2022-11-29T11:04:30.717Z,0.30
2022-11-29T11:07:01.132Z,0.35
2022-11-29T11:09:34.408Z,0.30
2022-11-29T11:12:02.838Z,0.40
2022-11-29T11:14:31.846Z,0.40
2022-11-29T11:17:15.378Z,0.40
2022-11-29T11:19:54.703Z,0.38
2022-11-29T11:22:23.730Z,0.30
2022-11-29T11:24:57.924Z,0.40
2022-11-29T11:27:32.655Z,0.30
2022-11-29T11:30:01.060Z,0.30
2022-11-29T11:32:28.609Z,0.30
2022-11-29T11:34:58.407Z,0.30
2022-11-29T11:37:26.804Z,0.30
2022-11-29T11:39:55.756Z,0.30
2022-11-29T11:42:37.875Z,0.30
2022-11-29T11:45:20.133Z,0.40
2022-11-29T11:47:49.293Z,0.30
2022-11-29T11:50:27.513Z,0.40
2022-11-29T11:52:56.452Z,0.30
2022-11-29T11:55:28.582Z,0.30
2022-11-29T11:58:03.363Z,0.30
2022-11-29T12:01:06.813Z,0.30
2022-11-29T12:03:39.020Z,0.30
2022-11-29T12:06:27.397Z,0.30
2022-11-29T12:08:58.465Z,0.32
2022-11-29T12:11:26.582Z,0.30
2022-11-29T12:13:56.411Z,0.40
2022-11-29T12:16:28.425Z,0.30
2022-11-29T12:18:59.318Z,0.30
2022-11-29T12:21:28.922Z,0.30
2022-11-29T12:23:59.573Z,0.30
2022-11-29T12:26:55.880Z,0.30
2022-11-29T12:29:16.790Z,0.30
2022-11-29T12:31:48.110Z,0.40
2022-11-29T12:34:25.662Z,0.30
2022-11-29T12:36:55.694Z,0.40
2022-11-29T12:39:36.352Z,0.30
2022-11-29T12:42:10.371Z,0.30
2022-11-29T12:44:41.319Z,0.30
2022-11-29T12:47:35.230Z,0.30
2022-11-29T12:50:05.474Z,0.38
2022-11-29T12:52:37.237Z,0.20
2022-11-29T12:55:10.106Z,0.30
2022-11-29T12:57:43.545Z,0.30
2022-11-29T13:00:16.356Z,0.40
2022-11-29T13:02:49.514Z,0.30
2022-11-29T13:05:21.015Z,0.30
2022-11-29T13:07:57.848Z,0.30
2022-11-29T13:10:33.964Z,0.30
2022-11-29T13:13:04.406Z,0.30
2022-11-29T13:15:36.629Z,0.38
2022-11-29T13:18:07.395Z,0.30
2022-11-29T13:20:38.677Z,0.38
2022-11-29T13:23:12.111Z,0.38
2022-11-29T13:25:42.145Z,0.30
2022-11-29T13:28:14.886Z,0.30
2022-11-29T13:30:42.697Z,0.40
2022-11-29T13:33:16.130Z,0.32
2022-11-29T13:35:47.961Z,0.30
2022-11-29T13:38:19.430Z,0.35
2022-11-29T13:40:52.893Z,0.30
2022-11-29T13:43:22.763Z,0.30
2022-11-29T13:45:54.372Z,0.40
2022-11-29T13:48:27.838Z,0.38
2022-11-29T13:50:56.445Z,0.30
2022-11-29T13:53:24.914Z,0.30
2022-11-29T13:56:00.528Z,0.30
2022-11-29T13:58:35.811Z,0.30
2022-11-29T14:01:06.385Z,0.40
2022-11-29T14:03:35.483Z,0.30
2022-11-29T14:06:09.729Z,0.30
2022-11-29T14:09:02.397Z,0.30
2022-11-29T14:11:28.737Z,0.30
2022-11-29T14:14:00.271Z,0.30
2022-11-29T14:16:31.505Z,0.35
2022-11-29T14:19:19.152Z,0.30
2022-11-29T14:22:05.899Z,0.30
2022-11-29T14:24:40.424Z,0.30
2022-11-29T14:27:22.815Z,0.30
2022-11-29T14:29:55.448Z,0.30
2022-11-29T14:32:24.217Z,0.30
2022-11-29T14:34:55.065Z,0.30
2022-11-29T14:37:35.609Z,0.40
2022-11-29T14:40:05.016Z,0.30
2022-11-29T14:42:32.650Z,0.30
2022-11-29T14:45:04.764Z,0.40
2022-11-29T14:47:34.301Z,0.30
2022-11-29T14:50:03.634Z,0.30
2022-11-29T14:52:33.204Z,0.30
2022-11-29T14:55:03.408Z,0.30
2022-11-29T14:57:49.602Z,0.30
2022-11-29T15:00:19.855Z,0.40
2022-11-29T15:02:49.238Z,0.40
2022-11-29T15:05:18.538Z,0.30
2022-11-29T15:07:48.239Z,0.40
2022-11-29T15:10:18.851Z,0.40
2022-11-29T15:12:46.866Z,0.38
2022-11-29T15:15:24.891Z,0.30
2022-11-29T15:17:56.009Z,0.30
2022-11-29T15:20:31.988Z,0.30
2022-11-29T15:23:00.952Z,0.38
2022-11-29T15:25:30.959Z,0.30
2022-11-29T15:27:59.142Z,0.43
2022-11-29T15:30:32.488Z,0.30
2022-11-29T15:33:01.837Z,0.38
2022-11-29T15:35:29.356Z,0.40
2022-11-29T15:37:57.068Z,0.30
2022-11-29T15:40:26.358Z,0.30
2022-11-29T15:42:59.971Z,0.30
2022-11-29T15:45:33.536Z,0.30
2022-11-29T15:48:16.598Z,0.40
2022-11-29T15:50:46.610Z,0.40
2022-11-29T15:53:17.322Z,0.32
2022-11-29T15:55:45.086Z,0.30
2022-11-29T15:58:14.627Z,0.40
2022-11-29T16:00:43.995Z,0.30
2022-11-29T16:03:17.919Z,0.30
2022-11-29T16:05:50.200Z,0.40
2022-11-29T16:08:18.979Z,0.30
2022-11-29T16:10:49.416Z,0.30
2022-11-29T16:13:37.059Z,0.30
2022-11-29T16:31:16.434Z,0.30
2022-11-29T16:33:48.890Z,0.30
2022-11-29T16:36:17.680Z,0.40
2022-11-29T16:38:46.478Z,0.40
2022-11-29T16:41:24.382Z,0.30
2022-11-29T16:43:55.108Z,0.30
2022-11-29T16:46:33.602Z,0.30
2022-11-29T16:49:03.655Z,0.40
2022-11-29T16:51:37.635Z,0.40
2022-11-29T16:54:22.300Z,0.30
2022-11-29T16:56:49.818Z,0.40
2022-11-29T16:59:26.622Z,0.40
2022-11-29T17:01:55.631Z,0.55
2022-11-29T17:04:25.122Z,0.50
2022-11-29T17:06:53.238Z,0.60
2022-11-29T17:09:22.848Z,0.50
2022-11-29T17:11:50.374Z,0.40
2022-11-29T17:14:17.911Z,0.50
2022-11-29T17:16:49.018Z,0.50
2022-11-29T17:19:17.211Z,0.30
2022-11-29T17:21:46.243Z,0.32
2022-11-29T17:24:15.612Z,0.40
2022-11-29T17:26:43.232Z,0.40
2022-11-29T17:29:10.775Z,0.40
2022-11-29T17:31:38.506Z,0.32
2022-11-29T17:34:06.660Z,0.30
2022-11-29T17:36:34.275Z,0.40
2022-11-29T17:39:03.514Z,0.40
2022-11-29T17:41:32.571Z,0.40
2022-11-29T17:44:00.497Z,0.30
2022-11-29T17:46:28.959Z,0.40
2022-11-29T17:48:56.667Z,0.40
2022-11-29T17:54:13.736Z,0.30
2022-11-29T17:59:26.536Z,0.40
2022-11-29T18:01:54.227Z,0.40
2022-11-29T18:04:21.795Z,0.38
2022-11-29T18:06:50.618Z,0.30
2022-11-29T18:09:19.874Z,0.40
2022-11-29T18:11:49.752Z,0.40
2022-11-29T18:14:18.513Z,0.30
2022-11-29T18:16:46.382Z,0.40
2022-11-29T18:19:17.699Z,0.30
2022-11-29T18:21:45.241Z,0.30
2022-11-29T18:24:13.089Z,0.40
2022-11-29T18:26:42.257Z,0.30
2022-11-29T18:29:10.189Z,0.40
2022-11-29T18:31:38.671Z,0.30
2022-11-29T18:34:09.559Z,0.40
2022-11-29T18:36:38.554Z,0.35
2022-11-29T18:39:07.173Z,0.40
2022-11-29T18:45:42.608Z,0.40
2022-11-29T18:48:11.656Z,0.40
2022-11-29T18:53:59.140Z,0.35
2022-11-29T19:03:50.340Z,0.50
2022-11-29T19:06:44.167Z,0.40
2022-11-29T19:09:14.800Z,0.40
2022-11-29T19:11:42.723Z,0.50
2022-11-29T19:17:03.934Z,0.30
2022-11-29T19:19:32.132Z,0.30
2022-11-29T19:22:25.153Z,0.45
2022-11-29T19:24:55.573Z,0.40
2022-11-29T19:27:47.334Z,0.38
2022-11-29T19:37:59.566Z,0.30
2022-11-29T19:40:28.664Z,0.40
2022-11-29T19:43:22.340Z,0.40
2022-11-29T19:46:13.420Z,0.40
2022-11-29T19:52:49.128Z,0.30
2022-11-29T19:55:43.870Z,0.40
2022-11-29T19:58:37.551Z,0.40
2022-11-29T20:01:11.170Z,0.35
2022-11-29T20:03:44.281Z,0.40
2022-11-29T20:06:13.422Z,0.30
2022-11-29T20:08:41.468Z,0.40
2022-11-29T20:11:12.369Z,0.40
2022-11-29T20:13:42.149Z,0.40
2022-11-29T20:16:10.416Z,0.30
2022-11-29T20:18:39.241Z,0.40
2022-11-29T20:21:07.567Z,0.40
2022-11-29T20:23:35.633Z,0.40
2022-11-29T20:26:03.407Z,0.40
2022-11-29T20:28:31.008Z,0.40
2022-11-29T20:31:05.094Z,0.40
2022-11-29T20:33:32.732Z,0.40
2022-11-29T20:36:04.214Z,0.40
2022-11-29T20:38:34.448Z,0.30
2022-11-29T20:41:05.225Z,0.40
2022-11-29T20:43:36.950Z,0.30
2022-11-29T20:46:06.238Z,0.30
2022-11-29T20:48:33.994Z,0.40
2022-11-29T20:51:02.132Z,0.40
2022-11-29T20:53:34.468Z,0.40
2022-11-29T20:56:02.237Z,0.40
2022-11-29T20:58:30.785Z,0.40
2022-11-29T21:00:58.520Z,0.50
2022-11-29T21:03:27.834Z,0.40
2022-11-29T21:05:56.030Z,0.40
2022-11-29T21:08:26.408Z,0.35
2022-11-29T21:10:54.294Z,0.40
2022-11-29T21:13:23.047Z,0.40
2022-11-29T21:15:51.119Z,0.40
2022-11-29T21:18:21.601Z,0.50
2022-11-29T21:20:55.479Z,0.40
2022-11-29T21:23:28.137Z,0.50
2022-11-29T21:25:57.415Z,0.40
2022-11-29T21:28:28.348Z,0.50
2022-11-29T21:30:56.028Z,0.40
2022-11-29T21:33:23.709Z,0.50
2022-11-29T21:35:53.863Z,0.40
2022-11-29T21:38:23.941Z,0.40
2022-11-29T21:40:52.010Z,0.40
2022-11-29T21:43:20.796Z,0.47
2022-11-29T21:45:50.265Z,0.50
2022-11-29T21:48:40.413Z,0.50
2022-11-29T21:51:10.092Z,0.50
2022-11-29T21:53:38.907Z,0.50
2022-11-29T21:56:07.640Z,0.60
2022-11-29T21:58:39.821Z,0.50
2022-11-29T22:01:08.368Z,0.60
2022-11-29T22:03:35.848Z,0.50
2022-11-29T22:06:04.182Z,0.50
2022-11-29T22:08:35.582Z,0.63
2022-11-29T22:11:04.014Z,0.50
2022-11-29T22:13:31.466Z,0.50
2022-11-29T22:16:05.532Z,0.63
2022-11-29T22:18:33.179Z,0.80
2022-11-29T22:21:04.834Z,0.50
2022-11-29T22:23:32.354Z,0.60
2022-11-29T22:26:05.855Z,0.67
2022-11-29T22:28:33.394Z,0.77
2022-11-29T22:31:05.333Z,0.67
2022-11-29T22:33:32.901Z,0.80
2022-11-29T22:36:04.109Z,0.80
2022-11-29T22:38:31.657Z,0.80
2022-11-29T22:41:02.436Z,0.50
2022-11-29T22:43:31.946Z,0.60
2022-11-29T22:46:05.987Z,0.90
2022-11-29T22:48:38.398Z,1.10
2022-11-29T22:51:07.553Z,0.80
2022-11-29T22:53:35.250Z,0.60
2022-11-29T22:56:03.378Z,0.90
2022-11-29T22:58:32.180Z,0.50
2022-11-29T23:01:03.541Z,0.50
2022-11-29T23:03:33.467Z,0.50
2022-11-29T23:06:03.284Z,0.93
2022-11-29T23:08:30.741Z,0.67
2022-11-29T23:10:58.719Z,0.60
2022-11-29T23:13:26.310Z,0.50
2022-11-29T23:15:55.124Z,0.50
2022-11-29T23:18:22.704Z,0.50
2022-11-29T23:20:50.332Z,0.50
2022-11-29T23:23:17.849Z,0.50
2022-11-29T23:25:49.292Z,0.40
2022-11-29T23:28:17.152Z,0.50
2022-11-29T23:30:44.876Z,0.50
2022-11-29T23:33:13.740Z,0.50
2022-11-29T23:35:42.396Z,0.40
2022-11-29T23:38:09.915Z,0.50
2022-11-29T23:40:37.383Z,0.60
2022-11-29T23:43:04.831Z,0.57
2022-11-29T23:45:32.334Z,0.40
2022-11-29T23:47:59.979Z,0.50
2022-11-29T23:50:28.989Z,0.40
2022-11-29T23:52:57.140Z,0.50
2022-11-29T23:55:25.018Z,0.60
2022-11-29T23:57:52.952Z,0.50
